createdAt,value
2017-04-12T00:00:25.887Z,0
2017-04-12T00:01:35.901Z,0
2017-04-12T00:02:46.228Z,0
2017-04-12T00:03:56.573Z,0
2017-04-12T00:05:06.920Z,0
2017-04-12T00:06:17.306Z,0
2017-04-12T00:07:27.629Z,0
2017-04-12T00:08:37.960Z,0
2017-04-12T00:09:48.285Z,0
2017-04-12T00:10:58.630Z,0
2017-04-12T00:12:08.981Z,0
2017-04-12T00:13:19.317Z,0
2017-04-12T00:14:29.340Z,0
2017-04-12T00:15:39.359Z,0
2017-04-12T00:16:49.733Z,0
2017-04-12T00:17:59.771Z,0
2017-04-12T00:19:09.813Z,0
2017-04-12T00:20:19.833Z,0
2017-04-12T00:21:30.170Z,0
2017-04-12T00:22:40.190Z,0
2017-04-12T00:23:50.517Z,0
2017-04-12T00:25:00.858Z,0
2017-04-12T00:26:11.187Z,0
2017-04-12T00:27:21.524Z,0
2017-04-12T00:28:31.859Z,0
2017-04-12T00:29:42.202Z,0
2017-04-12T00:30:52.541Z,0
2017-04-12T00:32:02.879Z,0
2017-04-12T00:33:13.218Z,0
2017-04-12T00:34:23.290Z,0
2017-04-12T00:35:33.618Z,0
2017-04-12T00:36:43.945Z,0
2017-04-12T00:37:53.967Z,0
2017-04-12T00:39:03.990Z,0
2017-04-12T00:40:14.006Z,0
2017-04-12T00:41:24.359Z,0
2017-04-12T00:42:34.691Z,0
2017-04-12T00:43:45.028Z,0
2017-04-12T00:44:55.381Z,0
2017-04-12T00:46:05.638Z,0
2017-04-12T00:47:15.981Z,0
2017-04-12T00:48:26.029Z,0
2017-04-12T00:49:36.355Z,0
2017-04-12T00:50:46.373Z,0
2017-04-12T00:51:56.727Z,0
2017-04-12T00:53:07.080Z,0
2017-04-12T00:54:17.427Z,0
2017-04-12T00:55:27.765Z,0
2017-04-12T00:56:38.105Z,0
2017-04-12T00:57:48.444Z,0
2017-04-12T00:58:58.781Z,0
2017-04-12T01:00:09.131Z,0
2017-04-12T01:01:19.460Z,0
2017-04-12T01:02:29.808Z,0
2017-04-12T01:03:39.837Z,0
2017-04-12T01:04:49.864Z,0
2017-04-12T01:06:00.200Z,0
2017-04-12T01:07:10.546Z,0
2017-04-12T01:08:20.876Z,0
2017-04-12T01:09:30.596Z,0
2017-04-12T01:10:40.665Z,0
2017-04-12T01:11:51.000Z,0
2017-04-12T01:13:01.030Z,0
2017-04-12T01:14:11.082Z,0
2017-04-12T01:15:21.393Z,0
2017-04-12T01:16:31.411Z,0
2017-04-12T01:17:41.430Z,0
2017-04-12T01:18:51.777Z,0
2017-04-12T01:20:02.110Z,0
2017-04-12T01:21:12.130Z,0
2017-04-12T01:22:22.148Z,0
2017-04-12T01:23:32.161Z,0
2017-04-12T01:24:42.523Z,0
2017-04-12T01:25:52.849Z,0
2017-04-12T01:27:02.874Z,0
2017-04-12T01:28:13.225Z,0
2017-04-12T01:29:23.565Z,0
2017-04-12T01:30:33.894Z,0
2017-04-12T01:31:43.913Z,0
2017-04-12T01:32:53.971Z,0
2017-04-12T01:34:04.296Z,0
2017-04-12T01:35:14.629Z,0
2017-04-12T01:36:24.643Z,0
2017-04-12T01:37:34.669Z,0
2017-04-12T01:38:44.998Z,0
2017-04-12T01:39:55.338Z,0
2017-04-12T01:41:05.346Z,0
2017-04-12T01:42:15.675Z,0
2017-04-12T01:43:25.998Z,0
2017-04-12T01:44:36.322Z,0
2017-04-12T01:45:46.346Z,0
2017-04-12T01:46:56.659Z,0
2017-04-12T01:48:06.358Z,0
2017-04-12T01:49:16.378Z,0
2017-04-12T01:50:26.714Z,0
2017-04-12T01:51:36.728Z,0
2017-04-12T01:52:46.434Z,0
2017-04-12T01:53:56.461Z,0
2017-04-12T01:55:06.800Z,0
2017-04-12T01:56:17.116Z,0
2017-04-12T01:57:27.455Z,0
2017-04-12T01:58:37.781Z,0
2017-04-12T01:59:48.120Z,0
2017-04-12T02:00:58.512Z,0
2017-04-12T02:02:08.858Z,0
2017-04-12T02:03:19.193Z,0
2017-04-12T02:04:29.200Z,0
2017-04-12T02:05:39.541Z,0
2017-04-12T02:06:49.551Z,0
2017-04-12T02:07:59.896Z,0
2017-04-12T02:09:10.227Z,0
2017-04-12T02:10:20.246Z,0
2017-04-12T02:11:30.576Z,0
2017-04-12T02:12:40.609Z,0
2017-04-12T02:13:50.943Z,0
2017-04-12T02:15:01.272Z,0
2017-04-12T02:16:10.683Z,0
2017-04-12T02:17:20.696Z,0
2017-04-12T02:18:31.033Z,0
2017-04-12T02:19:40.739Z,0
2017-04-12T02:20:51.070Z,0
2017-04-12T02:22:01.402Z,0
2017-04-12T02:23:11.738Z,0
2017-04-12T02:24:22.052Z,0
2017-04-12T02:25:32.067Z,0
2017-04-12T02:26:42.398Z,0
2017-04-12T02:27:52.726Z,0
2017-04-12T02:29:03.109Z,0
2017-04-12T02:30:12.805Z,0
2017-04-12T02:31:22.829Z,0
2017-04-12T02:32:33.156Z,0
2017-04-12T02:33:43.484Z,0
2017-04-12T02:34:53.516Z,0
2017-04-12T02:36:03.221Z,0
2017-04-12T02:37:13.562Z,0
2017-04-12T02:38:23.579Z,0
2017-04-12T02:39:33.902Z,0
2017-04-12T02:40:44.242Z,0
2017-04-12T02:41:53.948Z,0
2017-04-12T02:43:04.282Z,0
2017-04-12T02:44:14.667Z,0
2017-04-12T02:45:24.995Z,0
2017-04-12T02:46:35.317Z,0
2017-04-12T02:47:45.663Z,0
2017-04-12T02:48:55.993Z,0
2017-04-12T02:50:05.698Z,0
2017-04-12T02:51:16.025Z,0
2017-04-12T02:52:26.374Z,0
2017-04-12T02:53:36.452Z,0
2017-04-12T02:54:46.781Z,0
2017-04-12T02:55:56.491Z,0
2017-04-12T02:57:06.508Z,0
2017-04-12T02:58:16.516Z,0
2017-04-12T02:59:26.847Z,0
2017-04-12T03:00:36.859Z,0
2017-04-12T03:01:47.190Z,0
2017-04-12T03:32:47.747Z,0
2017-04-12T03:33:58.088Z,0
2017-04-12T03:35:08.436Z,0
2017-04-12T03:36:18.752Z,0
2017-04-12T03:37:29.087Z,0
2017-04-12T03:38:39.156Z,0
2017-04-12T03:39:49.479Z,0
2017-04-12T03:40:59.813Z,0
2017-04-12T03:42:09.818Z,0
2017-04-12T03:43:20.142Z,0
2017-04-12T03:44:30.187Z,0
2017-04-12T03:45:40.526Z,0
2017-04-12T03:46:50.541Z,0
2017-04-12T03:48:00.566Z,0
2017-04-12T03:49:10.583Z,0
2017-04-12T03:50:20.602Z,0
2017-04-12T03:51:30.918Z,0
2017-04-12T03:52:41.255Z,0
2017-04-12T03:53:51.592Z,0
2017-04-12T03:55:01.933Z,0
2017-04-12T03:56:12.004Z,0
2017-04-12T03:57:21.716Z,0
2017-04-12T03:58:32.041Z,0
2017-04-12T03:59:42.053Z,0
2017-04-12T04:00:52.391Z,0
2017-04-12T04:02:02.402Z,0
2017-04-12T04:03:12.730Z,0
2017-04-12T04:04:23.076Z,0
2017-04-12T04:05:33.089Z,0
2017-04-12T04:06:43.406Z,0
2017-04-12T04:07:53.748Z,0
2017-04-12T04:09:03.459Z,0
2017-04-12T04:10:13.776Z,0
2017-04-12T04:11:23.492Z,5
2017-04-12T04:12:33.822Z,5
2017-04-12T04:13:44.236Z,5
2017-04-12T04:14:54.256Z,5
2017-04-12T04:16:04.595Z,5
2017-04-12T04:17:14.926Z,5
2017-04-12T04:18:24.941Z,10
2017-04-12T04:19:35.270Z,10
2017-04-12T04:20:45.291Z,10
2017-04-12T04:21:55.636Z,10
2017-04-12T04:23:05.663Z,10
2017-04-12T04:24:15.980Z,15
2017-04-12T04:25:26.008Z,15
2017-04-12T04:26:36.346Z,15
2017-04-12T04:27:46.670Z,15
2017-04-12T04:28:57.008Z,20
2017-04-12T04:30:07.344Z,20
2017-04-12T04:31:17.676Z,20
2017-04-12T04:32:27.729Z,25
2017-04-12T04:33:38.055Z,25
2017-04-12T04:34:48.070Z,25
2017-04-12T04:35:58.402Z,25
2017-04-12T04:37:08.748Z,30
2017-04-12T04:38:19.077Z,30
2017-04-12T04:39:29.402Z,30
2017-04-12T04:40:39.744Z,30
2017-04-12T04:41:49.765Z,30
2017-04-12T04:43:00.168Z,35
2017-04-12T04:44:10.500Z,35
2017-04-12T04:45:20.536Z,35
2017-04-12T04:46:30.854Z,40
2017-04-12T04:47:41.192Z,40
2017-04-12T04:48:50.911Z,40
2017-04-12T04:50:01.267Z,45
2017-04-12T04:51:11.301Z,45
2017-04-12T04:52:21.623Z,45
2017-04-12T04:53:31.638Z,45
2017-04-12T04:54:41.967Z,50
2017-04-12T04:55:52.301Z,50
2017-04-12T04:57:02.618Z,50
2017-04-12T04:58:12.946Z,50
2017-04-12T04:59:23.286Z,55
2017-04-12T05:00:33.626Z,55
2017-04-12T05:01:43.956Z,55
2017-04-12T05:02:53.972Z,55
2017-04-12T05:04:04.303Z,60
2017-04-12T05:05:14.632Z,60
2017-04-12T05:06:24.684Z,60
2017-04-12T05:07:34.719Z,60
2017-04-12T05:08:45.045Z,65
2017-04-12T05:09:55.067Z,65
2017-04-12T05:11:05.404Z,65
2017-04-12T05:12:15.740Z,65
2017-04-12T05:13:26.118Z,70
2017-04-12T05:14:36.433Z,70
2017-04-12T05:15:46.451Z,75
2017-04-12T05:16:56.481Z,75
2017-04-12T05:18:06.505Z,75
2017-04-12T05:19:16.845Z,75
2017-04-12T05:20:27.181Z,80
2017-04-12T05:21:37.505Z,80
2017-04-12T05:22:47.537Z,85
2017-04-12T05:23:57.603Z,85
2017-04-12T05:25:07.945Z,90
2017-04-12T05:26:17.959Z,90
2017-04-12T05:27:28.279Z,90
2017-04-12T05:28:38.621Z,95
2017-04-12T05:29:48.947Z,95
2017-04-12T05:30:58.987Z,100
2017-04-12T05:32:09.322Z,105
2017-04-12T05:33:19.688Z,105
2017-04-12T05:34:30.024Z,105
2017-04-12T05:35:40.111Z,110
2017-04-12T05:36:50.437Z,110
2017-04-12T05:38:00.458Z,110
2017-04-12T05:39:10.786Z,115
2017-04-12T05:40:20.821Z,115
2017-04-12T05:41:31.208Z,120
2017-04-12T05:42:41.555Z,120
2017-04-12T05:43:51.614Z,125
2017-04-12T05:45:01.643Z,125
2017-04-12T05:46:11.960Z,130
2017-04-12T05:47:22.287Z,130
2017-04-12T05:48:32.629Z,135
2017-04-12T05:49:42.966Z,135
2017-04-12T05:50:53.303Z,140
2017-04-12T05:52:03.332Z,140
2017-04-12T05:53:13.352Z,140
2017-04-12T05:54:23.690Z,155
2017-04-12T05:55:34.037Z,160
2017-04-12T05:56:44.369Z,155
2017-04-12T05:57:54.402Z,155
2017-04-12T05:59:04.736Z,160
2017-04-12T06:00:14.757Z,150
2017-04-12T06:01:25.078Z,150
2017-04-12T06:02:35.113Z,150
2017-04-12T06:03:45.151Z,145
2017-04-12T06:04:55.498Z,140
2017-04-12T06:06:04.911Z,145
2017-04-12T06:07:15.237Z,140
2017-04-12T06:08:25.596Z,140
2017-04-12T06:09:35.615Z,145
2017-04-12T06:10:45.657Z,145
2017-04-12T06:11:56.018Z,145
2017-04-12T06:13:06.354Z,145
2017-04-12T06:14:16.389Z,145
2017-04-12T06:15:26.431Z,145
2017-04-12T06:16:36.770Z,145
2017-04-12T06:17:46.789Z,145
2017-04-12T06:18:56.511Z,145
2017-04-12T06:20:06.867Z,145
2017-04-12T06:21:16.883Z,145
2017-04-12T06:22:27.224Z,145
2017-04-12T06:23:37.557Z,150
2017-04-12T06:24:47.903Z,150
2017-04-12T06:25:58.267Z,150
2017-04-12T06:27:08.323Z,155
2017-04-12T06:28:18.666Z,155
2017-04-12T06:29:28.999Z,155
2017-04-12T06:30:39.342Z,160
2017-04-12T06:31:49.631Z,160
2017-04-12T06:32:59.914Z,160
2017-04-12T06:34:10.182Z,165
2017-04-12T06:35:20.147Z,165
2017-04-12T06:36:30.425Z,170
2017-04-12T06:37:40.724Z,175
2017-04-12T06:38:50.684Z,175
2017-04-12T06:40:00.945Z,175
2017-04-12T06:41:10.905Z,180
2017-04-12T06:42:21.178Z,185
2017-04-12T06:43:31.154Z,185
2017-04-12T06:44:41.455Z,185
2017-04-12T06:45:51.662Z,190
2017-04-12T06:47:01.630Z,190
2017-04-12T06:48:11.913Z,195
2017-04-12T06:49:21.877Z,200
2017-04-12T06:50:32.177Z,200
2017-04-12T06:51:42.438Z,200
2017-04-12T06:52:52.708Z,205
2017-04-12T06:54:02.966Z,205
2017-04-12T06:55:13.234Z,205
2017-04-12T06:56:23.511Z,205
2017-04-12T06:57:33.791Z,210
2017-04-12T06:58:44.070Z,205
2017-04-12T06:59:54.353Z,205
2017-04-12T07:01:04.319Z,205
2017-04-12T07:02:14.601Z,205
2017-04-12T07:03:24.874Z,210
2017-04-12T07:04:35.165Z,210
2017-04-12T07:05:45.473Z,210
2017-04-12T07:06:55.749Z,215
2017-04-12T07:08:06.029Z,215
2017-04-12T07:09:15.994Z,215
2017-04-12T07:10:25.960Z,220
2017-04-12T07:11:35.941Z,220
2017-04-12T07:12:45.918Z,220
2017-04-12T07:13:56.194Z,220
2017-04-12T07:15:06.498Z,220
2017-04-12T07:16:16.798Z,220
2017-04-12T07:17:27.076Z,220
2017-04-12T07:18:37.366Z,225
2017-04-12T07:19:47.339Z,220
2017-04-12T07:20:57.658Z,220
2017-04-12T07:22:07.617Z,230
2017-04-12T07:23:17.899Z,225
2017-04-12T07:24:27.589Z,225
2017-04-12T07:25:37.539Z,225
2017-04-12T07:26:47.810Z,225
2017-04-12T07:27:57.770Z,225
2017-04-12T07:29:07.741Z,225
2017-04-12T07:30:18.238Z,225
2017-04-12T07:31:28.214Z,230
2017-04-12T07:32:38.509Z,230
2017-04-12T07:33:48.474Z,230
2017-04-12T07:34:58.446Z,230
2017-04-12T07:36:08.742Z,230
2017-04-12T07:37:18.747Z,235
2017-04-12T07:38:29.024Z,235
2017-04-12T07:39:39.311Z,235
2017-04-12T07:40:49.274Z,240
2017-04-12T07:41:59.235Z,245
2017-04-12T07:43:09.525Z,245
2017-04-12T07:44:19.803Z,245
2017-04-12T07:45:30.118Z,250
2017-04-12T07:46:40.403Z,250
2017-04-12T07:47:50.686Z,250
2017-04-12T07:49:00.978Z,250
2017-04-12T07:50:11.239Z,250
2017-04-12T07:51:21.503Z,255
2017-04-12T07:52:31.773Z,255
2017-04-12T07:53:42.051Z,250
2017-04-12T07:54:52.016Z,250
2017-04-12T07:56:02.290Z,255
2017-04-12T07:57:12.801Z,255
2017-04-12T07:58:22.755Z,255
2017-04-12T07:59:32.423Z,260
2017-04-12T08:00:42.712Z,260
2017-04-12T08:01:52.677Z,260
2017-04-12T08:03:02.654Z,260
2017-04-12T08:04:12.626Z,260
2017-04-12T08:05:22.897Z,260
2017-04-12T08:06:33.168Z,260
2017-04-12T08:07:43.133Z,260
2017-04-12T08:08:53.414Z,265
2017-04-12T08:10:03.692Z,265
2017-04-12T08:11:13.664Z,265
2017-04-12T08:12:23.937Z,265
2017-04-12T08:13:34.248Z,265
2017-04-12T08:14:44.523Z,265
2017-04-12T08:15:54.182Z,265
2017-04-12T08:17:04.141Z,270
2017-04-12T08:18:14.413Z,275
2017-04-12T08:19:24.692Z,270
2017-04-12T08:20:34.666Z,275
2017-04-12T08:21:44.939Z,270
2017-04-12T08:22:55.401Z,270
2017-04-12T08:24:05.385Z,270
2017-04-12T08:25:15.671Z,275
2017-04-12T08:26:25.953Z,275
2017-04-12T08:27:35.967Z,270
2017-04-12T08:28:46.226Z,270
2017-04-12T08:29:56.501Z,270
2017-04-12T08:31:06.479Z,275
2017-04-12T08:32:16.494Z,275
2017-04-12T08:33:26.781Z,275
2017-04-12T08:34:36.764Z,280
2017-04-12T08:35:46.732Z,280
2017-04-12T08:36:57.042Z,285
2017-04-12T08:38:07.322Z,285
2017-04-12T08:39:17.627Z,285
2017-04-12T08:40:27.578Z,285
2017-04-12T08:41:37.858Z,290
2017-04-12T08:42:47.826Z,295
2017-04-12T08:43:57.803Z,295
2017-04-12T08:45:08.085Z,295
2017-04-12T08:46:18.045Z,300
2017-04-12T08:47:28.317Z,300
2017-04-12T08:48:38.276Z,300
2017-04-12T08:49:48.254Z,300
2017-04-12T08:50:58.521Z,295
2017-04-12T08:52:08.180Z,300
2017-04-12T08:53:17.571Z,305
2017-04-12T08:54:27.537Z,310
2017-04-12T08:55:37.805Z,315
2017-04-12T08:56:48.066Z,320
2017-04-12T08:57:58.342Z,320
2017-04-12T08:59:08.299Z,320
2017-04-12T09:00:18.572Z,325
2017-04-12T09:01:28.847Z,330
2017-04-12T09:02:38.822Z,330
2017-04-12T09:03:49.102Z,330
2017-04-12T09:04:59.063Z,325
2017-04-12T09:06:09.325Z,325
2017-04-12T09:07:19.628Z,320
2017-04-12T09:08:29.308Z,330
2017-04-12T09:09:38.981Z,325
2017-04-12T09:10:48.957Z,325
2017-04-12T09:11:58.938Z,325
2017-04-12T09:13:08.935Z,330
2017-04-12T09:14:19.202Z,330
2017-04-12T09:15:29.218Z,325
2017-04-12T09:16:39.496Z,330
2017-04-12T09:17:49.781Z,330
2017-04-12T09:19:00.105Z,330
2017-04-12T09:20:10.084Z,330
2017-04-12T09:21:20.367Z,330
2017-04-12T09:22:30.329Z,330
2017-04-12T09:23:40.660Z,330
2017-04-12T09:24:50.634Z,335
2017-04-12T09:26:00.893Z,335
2017-04-12T09:27:10.885Z,340
2017-04-12T09:28:21.152Z,345
2017-04-12T09:29:31.419Z,345
2017-04-12T09:30:41.381Z,350
2017-04-12T09:31:51.033Z,345
2017-04-12T09:33:01.304Z,340
2017-04-12T09:34:11.516Z,340
2017-04-12T09:35:21.170Z,335
2017-04-12T09:36:31.171Z,335
2017-04-12T09:37:41.137Z,335
2017-04-12T09:38:51.408Z,330
2017-04-12T09:40:01.379Z,335
2017-04-12T09:41:11.048Z,335
2017-04-12T09:42:21.331Z,335
2017-04-12T09:43:31.290Z,335
2017-04-12T09:44:41.561Z,335
2017-04-12T09:45:51.547Z,335
2017-04-12T09:47:01.530Z,335
2017-04-12T09:48:11.508Z,335
2017-04-12T09:49:22.019Z,335
2017-04-12T09:50:32.280Z,335
2017-04-12T09:51:42.552Z,335
2017-04-12T09:52:52.830Z,335
2017-04-12T09:54:03.107Z,330
2017-04-12T09:55:13.113Z,330
2017-04-12T09:56:23.083Z,330
2017-04-12T09:57:33.366Z,330
2017-04-12T09:58:43.333Z,330
2017-04-12T09:59:53.605Z,335
2017-04-12T10:01:03.605Z,330
2017-04-12T10:02:13.872Z,325
2017-04-12T10:03:23.856Z,320
2017-04-12T10:04:34.135Z,320
2017-04-12T10:05:44.419Z,325
2017-04-12T10:06:54.713Z,325
2017-04-12T10:08:04.975Z,330
2017-04-12T10:09:14.652Z,330
2017-04-12T10:10:24.924Z,325
2017-04-12T10:11:35.201Z,325
2017-04-12T10:12:45.494Z,325
2017-04-12T10:13:55.764Z,325
2017-04-12T10:15:06.046Z,325
2017-04-12T10:16:16.331Z,330
2017-04-12T10:17:26.301Z,320
2017-04-12T10:18:35.951Z,325
2017-04-12T10:19:45.924Z,315
2017-04-12T10:20:55.944Z,320
2017-04-12T10:22:05.910Z,320
2017-04-12T10:23:15.879Z,320
2017-04-12T10:24:26.152Z,315
2017-04-12T10:25:36.117Z,315
2017-04-12T10:26:46.434Z,320
2017-04-12T10:27:56.399Z,325
2017-04-12T10:29:06.687Z,330
2017-04-12T10:30:16.977Z,325
2017-04-12T10:31:27.249Z,310
2017-04-12T10:32:37.514Z,315
2017-04-12T10:33:47.784Z,315
2017-04-12T10:34:58.081Z,320
2017-04-12T10:36:08.358Z,280
2017-04-12T10:37:18.325Z,320
2017-04-12T10:38:28.300Z,320
2017-04-12T10:39:38.268Z,335
2017-04-12T10:40:48.556Z,350
2017-04-12T10:41:58.219Z,320
2017-04-12T10:43:08.501Z,345
2017-04-12T10:44:18.810Z,355
2017-04-12T10:45:29.079Z,360
2017-04-12T10:46:39.356Z,345
2017-04-12T10:47:49.630Z,330
2017-04-12T10:48:59.906Z,330
2017-04-12T10:50:09.882Z,330
2017-04-12T10:51:20.174Z,315
2017-04-12T10:52:30.451Z,315
2017-04-12T10:53:40.118Z,300
2017-04-12T10:54:50.388Z,290
2017-04-12T10:56:00.684Z,300
2017-04-12T10:57:10.997Z,325
2017-04-12T10:58:21.285Z,320
2017-04-12T10:59:31.606Z,340
2017-04-12T11:00:41.582Z,300
2017-04-12T11:01:51.537Z,320
2017-04-12T11:03:01.806Z,365
2017-04-12T11:04:11.765Z,385
2017-04-12T11:05:21.430Z,395
2017-04-12T11:06:31.476Z,395
2017-04-12T11:07:41.772Z,405
2017-04-12T11:08:52.040Z,425
2017-04-12T11:10:02.325Z,415
2017-04-12T11:11:12.636Z,370
2017-04-12T11:12:22.922Z,375
2017-04-12T11:13:33.207Z,450
2017-04-12T11:14:43.504Z,445
2017-04-12T11:15:53.482Z,390
2017-04-12T11:17:03.783Z,365
2017-04-12T11:18:14.049Z,365
2017-04-12T11:19:24.021Z,370
2017-04-12T11:20:34.300Z,365
2017-04-12T11:21:44.574Z,365
2017-04-12T11:22:54.847Z,390
2017-04-12T11:24:04.853Z,365
2017-04-12T11:25:14.823Z,355
2017-04-12T11:26:25.097Z,355
2017-04-12T11:27:35.376Z,350
2017-04-12T11:28:45.653Z,360
2017-04-12T11:29:55.920Z,365
2017-04-12T11:31:06.202Z,345
2017-04-12T11:32:16.484Z,320
2017-04-12T11:33:26.146Z,325
2017-04-12T11:34:36.464Z,305
2017-04-12T11:35:46.746Z,300
2017-04-12T11:36:57.019Z,295
2017-04-12T11:38:07.297Z,285
2017-04-12T11:39:17.574Z,285
2017-04-12T11:40:27.845Z,285
2017-04-12T11:41:37.809Z,290
2017-04-12T11:42:48.092Z,310
2017-04-12T11:43:58.063Z,315
2017-04-12T11:45:08.048Z,320
2017-04-12T11:46:18.019Z,320
2017-04-12T11:47:28.011Z,315
2017-04-12T11:48:38.295Z,305
2017-04-12T11:49:48.570Z,295
2017-04-12T11:50:58.553Z,275
2017-04-12T11:52:08.531Z,270
2017-04-12T11:53:18.500Z,260
2017-04-12T11:54:28.782Z,255
2017-04-12T11:55:39.134Z,250
2017-04-12T11:56:49.410Z,250
2017-04-12T11:57:59.627Z,240
2017-04-12T11:59:09.905Z,240
2017-04-12T12:00:19.901Z,240
2017-04-12T12:01:29.859Z,240
2017-04-12T12:02:39.825Z,235
2017-04-12T12:03:50.092Z,230
2017-04-12T12:05:00.056Z,220
2017-04-12T12:06:10.325Z,205
2017-04-12T12:07:20.612Z,195
2017-04-12T12:08:30.890Z,195
2017-04-12T12:09:41.168Z,190
2017-04-12T12:10:51.431Z,190
2017-04-12T12:12:01.713Z,190
2017-04-12T12:13:11.990Z,190
2017-04-12T12:14:22.268Z,190
2017-04-12T12:15:32.528Z,185
2017-04-12T12:16:42.812Z,180
2017-04-12T12:17:53.088Z,180
2017-04-12T12:19:03.400Z,185
2017-04-12T12:20:13.390Z,185
2017-04-12T12:21:23.666Z,190
2017-04-12T12:22:33.954Z,190
2017-04-12T12:23:43.620Z,190
2017-04-12T12:24:53.898Z,190
2017-04-12T12:26:03.883Z,190
2017-04-12T12:27:14.185Z,200
2017-04-12T12:28:24.187Z,215
2017-04-12T12:29:34.186Z,235
2017-04-12T12:30:44.502Z,260
2017-04-12T12:31:54.779Z,275
2017-04-12T12:33:04.149Z,275
2017-04-12T12:34:14.137Z,275
2017-04-12T12:35:24.410Z,275
2017-04-12T12:36:34.381Z,265
2017-04-12T12:37:44.659Z,260
2017-04-12T12:38:54.941Z,255
2017-04-12T12:40:05.235Z,265
2017-04-12T12:41:15.552Z,265
2017-04-12T12:42:25.859Z,265
2017-04-12T12:43:35.848Z,265
2017-04-12T12:44:46.117Z,265
2017-04-12T12:45:56.407Z,265
2017-04-12T12:47:06.401Z,270
2017-04-12T12:48:16.720Z,275
2017-04-12T12:49:26.999Z,275
2017-04-12T12:50:37.006Z,280
2017-04-12T12:51:46.982Z,280
2017-04-12T12:52:57.288Z,290
2017-04-12T12:54:07.558Z,300
2017-04-12T12:55:17.568Z,315
2017-04-12T12:56:27.849Z,280
2017-04-12T12:57:37.808Z,275
2017-04-12T12:58:48.097Z,280
2017-04-12T12:59:58.403Z,280
2017-04-12T13:01:08.683Z,280
2017-04-12T13:02:18.968Z,275
2017-04-12T13:03:29.244Z,275
2017-04-12T13:04:39.534Z,275
2017-04-12T13:05:49.816Z,285
2017-04-12T13:06:59.778Z,300
2017-04-12T13:08:10.069Z,285
2017-04-12T13:09:20.352Z,275
2017-04-12T13:10:30.616Z,275
2017-04-12T13:11:40.905Z,275
2017-04-12T13:12:51.192Z,275
2017-04-12T13:14:01.483Z,260
2017-04-12T13:15:11.471Z,245
2017-04-12T13:16:21.732Z,240
2017-04-12T13:17:32.054Z,235
2017-04-12T13:18:42.021Z,230
2017-04-12T13:19:52.310Z,225
2017-04-12T13:21:02.275Z,220
2017-04-12T13:22:12.246Z,215
2017-04-12T13:23:22.573Z,215
2017-04-12T13:24:32.554Z,215
2017-04-12T13:25:42.841Z,215
2017-04-12T13:26:52.827Z,220
2017-04-12T13:28:02.178Z,215
2017-04-12T13:29:12.456Z,215
2017-04-12T13:30:22.737Z,215
2017-04-12T13:31:33.012Z,215
2017-04-12T13:32:43.300Z,220
2017-04-12T13:33:53.028Z,225
2017-04-12T13:35:03.325Z,215
2017-04-12T13:36:13.607Z,215
2017-04-12T13:37:23.882Z,210
2017-04-12T13:38:33.856Z,205
2017-04-12T13:39:44.132Z,210
2017-04-12T13:40:54.160Z,205
2017-04-12T13:42:04.430Z,195
2017-04-12T13:43:14.407Z,185
2017-04-12T13:44:24.364Z,180
2017-04-12T13:45:33.735Z,170
2017-04-12T13:46:43.713Z,165
2017-04-12T13:47:53.378Z,160
2017-04-12T13:49:03.360Z,165
2017-04-12T13:50:13.648Z,165
2017-04-12T13:51:23.611Z,170
2017-04-12T13:52:33.895Z,185
2017-04-12T13:53:44.168Z,185
2017-04-12T13:54:54.150Z,185
2017-04-12T13:56:04.633Z,190
2017-04-12T13:57:14.898Z,220
2017-04-12T13:58:25.177Z,260
2017-04-12T13:59:35.185Z,280
2017-04-12T14:00:45.444Z,225
2017-04-12T14:01:55.723Z,200
2017-04-12T14:03:05.687Z,200
2017-04-12T14:04:15.670Z,200
2017-04-12T14:05:25.960Z,205
2017-04-12T14:06:36.231Z,205
2017-04-12T14:07:46.500Z,200
2017-04-12T14:08:56.762Z,185
2017-04-12T14:10:07.112Z,180
2017-04-12T14:11:16.784Z,175
2017-04-12T14:12:27.098Z,170
2017-04-12T14:13:37.376Z,165
2017-04-12T14:14:47.661Z,160
2017-04-12T14:15:57.615Z,160
2017-04-12T14:17:07.939Z,155
2017-04-12T14:18:18.223Z,155
2017-04-12T14:19:28.496Z,155
2017-04-12T14:20:38.475Z,165
2017-04-12T14:21:48.815Z,200
2017-04-12T14:22:59.102Z,175
2017-04-12T14:24:09.382Z,160
2017-04-12T14:25:19.664Z,160
2017-04-12T14:26:29.931Z,160
2017-04-12T14:27:40.258Z,160
2017-04-12T14:28:50.230Z,160
2017-04-12T14:30:00.191Z,155
2017-04-12T14:31:10.534Z,155
2017-04-12T14:32:20.809Z,150
2017-04-12T14:33:31.096Z,140
2017-04-12T14:34:41.377Z,145
2017-04-12T14:35:51.335Z,140
2017-04-12T14:37:01.611Z,145
2017-04-12T14:38:11.904Z,140
2017-04-12T14:39:21.566Z,140
2017-04-12T14:40:31.549Z,140
2017-04-12T14:41:41.515Z,140
2017-04-12T14:42:51.478Z,145
2017-04-12T14:44:01.750Z,140
2017-04-12T14:45:12.059Z,140
2017-04-12T14:46:22.347Z,145
2017-04-12T14:47:32.610Z,150
2017-04-12T14:48:42.884Z,150
2017-04-12T14:49:52.850Z,150
2017-04-12T14:51:02.815Z,150
2017-04-12T14:52:12.793Z,145
2017-04-12T14:53:23.075Z,145
2017-04-12T14:54:33.049Z,140
2017-04-12T14:55:43.328Z,135
2017-04-12T14:56:53.613Z,135
2017-04-12T14:58:03.886Z,135
2017-04-12T14:59:14.169Z,135
2017-04-12T15:00:24.476Z,140
2017-04-12T15:01:34.133Z,140
2017-04-12T15:02:44.129Z,135
2017-04-12T15:03:54.418Z,125
2017-04-12T15:05:04.681Z,120
2017-04-12T15:06:14.952Z,120
2017-04-12T15:07:25.236Z,120
2017-04-12T15:08:35.500Z,120
2017-04-12T15:09:45.779Z,125
2017-04-12T15:10:56.051Z,125
2017-04-12T15:12:06.315Z,125
2017-04-12T15:13:16.581Z,125
2017-04-12T15:14:26.553Z,120
2017-04-12T15:15:36.838Z,120
2017-04-12T15:16:47.110Z,120
2017-04-12T15:17:57.421Z,125
2017-04-12T15:19:07.733Z,125
2017-04-12T15:20:17.691Z,130
2017-04-12T15:21:27.410Z,130
2017-04-12T15:22:37.700Z,125
2017-04-12T15:23:47.967Z,125
2017-04-12T15:24:57.998Z,125
2017-04-12T15:26:08.298Z,130
2017-04-12T15:27:18.605Z,135
2017-04-12T15:28:28.870Z,140
2017-04-12T15:29:39.162Z,135
2017-04-12T15:30:49.446Z,130
2017-04-12T15:31:59.102Z,135
2017-04-12T15:33:09.071Z,125
2017-04-12T15:34:19.366Z,130
2017-04-12T15:35:29.653Z,120
2017-04-12T15:36:39.925Z,110
2017-04-12T15:37:49.882Z,110
2017-04-12T15:38:59.869Z,105
2017-04-12T15:40:09.844Z,100
2017-04-12T15:41:20.116Z,100
2017-04-12T15:42:30.390Z,100
2017-04-12T15:43:40.374Z,100
2017-04-12T15:44:50.662Z,95
2017-04-12T15:46:00.922Z,95
2017-04-12T15:47:11.209Z,105
2017-04-12T15:48:21.193Z,85
2017-04-12T15:49:31.531Z,85
2017-04-12T15:50:41.810Z,85
2017-04-12T15:51:51.812Z,85
2017-04-12T15:53:01.778Z,80
2017-04-12T15:54:12.057Z,80
2017-04-12T15:55:22.066Z,75
2017-04-12T15:56:32.342Z,70
2017-04-12T15:57:42.310Z,65
2017-04-12T15:58:52.270Z,65
2017-04-12T16:00:02.564Z,65
2017-04-12T16:01:12.538Z,60
2017-04-12T16:02:22.893Z,60
2017-04-12T16:03:32.564Z,60
2017-04-12T16:04:42.545Z,55
2017-04-12T16:05:52.823Z,55
2017-04-12T16:07:03.116Z,50
2017-04-12T16:08:13.412Z,50
2017-04-12T16:09:23.691Z,50
2017-04-12T16:10:33.982Z,50
2017-04-12T16:11:44.317Z,50
2017-04-12T16:12:54.658Z,45
2017-04-12T16:14:04.670Z,45
2017-04-12T16:15:15.015Z,45
2017-04-12T16:16:25.357Z,45
2017-04-12T16:17:35.686Z,45
2017-04-12T16:18:46.072Z,45
2017-04-12T16:19:56.047Z,45
2017-04-12T16:21:06.347Z,45
2017-04-12T16:22:16.317Z,45
2017-04-12T16:23:26.294Z,45
2017-04-12T16:24:36.571Z,45
2017-04-12T16:25:46.536Z,45
2017-04-12T16:26:56.844Z,45
2017-04-12T16:28:07.129Z,45
2017-04-12T16:29:17.408Z,45
2017-04-12T16:30:27.689Z,40
2017-04-12T16:31:37.702Z,35
2017-04-12T16:32:47.650Z,35
2017-04-12T16:33:57.933Z,30
2017-04-12T16:35:07.916Z,25
2017-04-12T16:36:17.883Z,25
2017-04-12T16:37:28.160Z,25
2017-04-12T16:38:38.122Z,20
2017-04-12T16:39:48.108Z,20
2017-04-12T16:40:58.386Z,20
2017-04-12T16:42:08.678Z,20
2017-04-12T16:43:18.970Z,20
2017-04-12T16:44:28.931Z,20
2017-04-12T16:45:39.233Z,20
2017-04-12T16:46:49.528Z,20
2017-04-12T16:47:59.857Z,15
2017-04-12T16:49:09.862Z,15
2017-04-12T16:50:20.171Z,15
2017-04-12T16:51:30.449Z,15
2017-04-12T16:52:40.434Z,15
2017-04-12T16:53:50.713Z,15
2017-04-12T16:55:00.984Z,10
2017-04-12T16:56:11.287Z,10